createdAt,value
2022-09-06T00:00:17.485Z,1014.08
2022-09-06T00:01:17.740Z,1014.03
2022-09-06T00:02:17.482Z,1014.00
2022-09-06T00:03:17.381Z,1013.96
2022-09-06T00:04:17.976Z,1013.99
2022-09-06T00:05:18.873Z,1013.96
2022-09-06T00:06:17.500Z,1013.94
2022-09-06T00:07:18.826Z,1013.92
2022-09-06T00:08:17.340Z,1013.92
2022-09-06T00:09:17.302Z,1014.02
2022-09-06T00:10:17.282Z,1013.97
2022-09-06T00:11:17.303Z,1013.99
2022-09-06T00:12:17.251Z,1014.00
2022-09-06T00:13:17.339Z,1014.02
2022-09-06T00:14:17.257Z,1013.96
2022-09-06T00:15:17.276Z,1014.00
2022-09-06T00:16:17.297Z,1013.95
2022-09-06T00:17:17.247Z,1013.98
2022-09-06T00:18:17.984Z,1014.00
2022-09-06T00:19:17.206Z,1013.95
2022-09-06T00:20:17.166Z,1014.00
2022-09-06T00:21:17.239Z,1013.96
2022-09-06T00:22:17.150Z,1014.00
2022-09-06T00:23:17.184Z,1013.97
2022-09-06T00:24:17.408Z,1013.97
2022-09-06T00:25:17.416Z,1013.99
2022-09-06T00:26:18.238Z,1013.97
2022-09-06T00:27:18.139Z,1013.96
2022-09-06T00:28:17.047Z,1013.97
2022-09-06T00:29:17.040Z,1013.93
2022-09-06T00:30:17.176Z,1013.92
2022-09-06T00:31:18.298Z,1013.92
2022-09-06T00:32:17.030Z,1013.91
2022-09-06T00:33:17.077Z,1013.87
2022-09-06T00:34:16.999Z,1013.85
2022-09-06T00:35:17.032Z,1013.87
2022-09-06T00:36:17.012Z,1013.86
2022-09-06T00:37:16.993Z,1013.86
2022-09-06T00:38:17.212Z,1013.88
2022-09-06T00:39:16.904Z,1013.94
2022-09-06T00:40:16.894Z,1013.93
2022-09-06T00:41:17.022Z,1013.92
2022-09-06T00:42:16.911Z,1013.90
2022-09-06T00:43:16.951Z,1013.93
2022-09-06T00:44:16.975Z,1013.95
2022-09-06T00:45:16.891Z,1013.93
2022-09-06T00:46:17.041Z,1013.93
2022-09-06T00:47:16.853Z,1013.94
2022-09-06T00:48:16.836Z,1013.94
2022-09-06T00:49:16.817Z,1013.94
2022-09-06T00:50:16.754Z,1013.98
2022-09-06T00:51:17.427Z,1014.00
2022-09-06T00:52:16.806Z,1014.02
2022-09-06T00:53:17.022Z,1013.98
2022-09-06T00:54:16.738Z,1014.00
2022-09-06T00:55:16.975Z,1014.03
2022-09-06T00:56:16.758Z,1014.06
2022-09-06T00:57:16.907Z,1014.08
2022-09-06T00:58:17.018Z,1014.08
2022-09-06T00:59:16.689Z,1014.04
2022-09-06T01:00:16.678Z,1014.09
2022-09-06T01:01:16.783Z,1014.08
2022-09-06T01:02:16.691Z,1014.04
2022-09-06T01:03:16.636Z,1014.02
2022-09-06T01:04:17.581Z,1014.03
2022-09-06T01:05:16.631Z,1014.00
2022-09-06T01:06:16.675Z,1014.00
2022-09-06T01:07:16.571Z,1013.98
2022-09-06T01:08:16.860Z,1013.98
2022-09-06T01:09:16.543Z,1013.99
2022-09-06T01:10:16.508Z,1013.95
2022-09-06T01:11:16.521Z,1013.92
2022-09-06T01:12:16.494Z,1013.94
2022-09-06T01:13:16.476Z,1013.91
2022-09-06T01:14:16.474Z,1013.88
2022-09-06T01:15:16.931Z,1013.87
2022-09-06T01:16:16.554Z,1013.87
2022-09-06T01:17:17.451Z,1013.88
2022-09-06T01:18:16.391Z,1013.85
2022-09-06T01:19:16.420Z,1013.89
2022-09-06T01:20:16.466Z,1013.88
2022-09-06T01:21:16.385Z,1013.88
2022-09-06T01:22:17.464Z,1013.92
2022-09-06T01:23:16.417Z,1013.90
2022-09-06T01:24:16.356Z,1013.92
2022-09-06T01:25:16.486Z,1013.97
2022-09-06T01:26:16.325Z,1013.95
2022-09-06T01:27:16.310Z,1013.95
2022-09-06T01:28:16.365Z,1013.91
2022-09-06T01:29:16.271Z,1013.91
2022-09-06T01:30:17.730Z,1013.92
2022-09-06T01:31:16.404Z,1013.88
2022-09-06T01:32:16.252Z,1013.84
2022-09-06T01:33:16.219Z,1013.91
2022-09-06T01:34:16.271Z,1013.85
2022-09-06T01:35:16.200Z,1013.85
2022-09-06T01:36:17.658Z,1013.84
2022-09-06T01:37:16.158Z,1013.83
2022-09-06T01:38:16.210Z,1013.80
2022-09-06T01:39:16.125Z,1013.85
2022-09-06T01:40:16.133Z,1013.79
2022-09-06T01:41:16.111Z,1013.82
2022-09-06T01:42:16.099Z,1013.78
2022-09-06T01:43:16.102Z,1013.77
2022-09-06T01:44:16.063Z,1013.76
2022-09-06T01:45:16.054Z,1013.78
2022-09-06T01:46:16.107Z,1013.75
2022-09-06T01:47:17.497Z,1013.75
2022-09-06T01:48:16.045Z,1013.76
2022-09-06T01:49:16.492Z,1013.72
2022-09-06T01:50:16.006Z,1013.73
2022-09-06T01:51:16.158Z,1013.71
2022-09-06T01:52:16.023Z,1013.69
2022-09-06T01:53:15.968Z,1013.70
2022-09-06T01:54:16.008Z,1013.75
2022-09-06T01:55:15.915Z,1013.71
2022-09-06T01:56:16.146Z,1013.73
2022-09-06T01:57:15.907Z,1013.73
2022-09-06T01:58:17.002Z,1013.68
2022-09-06T01:59:16.936Z,1013.73
2022-09-06T02:00:16.007Z,1013.70
2022-09-06T02:01:15.908Z,1013.69
2022-09-06T02:02:16.006Z,1013.63
2022-09-06T02:03:15.813Z,1013.69
2022-09-06T02:04:15.875Z,1013.69
2022-09-06T02:05:15.812Z,1013.72
2022-09-06T02:06:15.773Z,1013.70
2022-09-06T02:07:15.796Z,1013.72
2022-09-06T02:08:15.831Z,1013.73
2022-09-06T02:09:15.767Z,1013.68
2022-09-06T02:10:15.982Z,1013.71
2022-09-06T02:11:15.731Z,1013.77
2022-09-06T02:12:15.720Z,1013.76
2022-09-06T02:13:15.750Z,1013.73
2022-09-06T02:14:15.707Z,1013.76
2022-09-06T02:15:15.735Z,1013.81
2022-09-06T02:16:15.699Z,1013.75
2022-09-06T02:17:15.695Z,1013.75
2022-09-06T02:18:15.642Z,1013.76
2022-09-06T02:19:16.059Z,1013.77
2022-09-06T02:20:16.511Z,1013.72
2022-09-06T02:21:15.607Z,1013.76
2022-09-06T02:22:15.745Z,1013.70
2022-09-06T02:23:15.587Z,1013.72
2022-09-06T02:24:15.567Z,1013.70
2022-09-06T02:25:15.587Z,1013.61
2022-09-06T02:26:15.717Z,1013.63
2022-09-06T02:27:15.522Z,1013.63
2022-09-06T02:28:15.586Z,1013.62
2022-09-06T02:29:15.559Z,1013.59
2022-09-06T02:30:15.506Z,1013.59
2022-09-06T02:31:15.515Z,1013.52
2022-09-06T02:32:15.439Z,1013.51
2022-09-06T02:33:15.950Z,1013.49
2022-09-06T02:34:15.482Z,1013.46
2022-09-06T02:35:15.431Z,1013.50
2022-09-06T02:36:15.491Z,1013.42
2022-09-06T02:37:15.368Z,1013.42
2022-09-06T02:38:15.375Z,1013.41
2022-09-06T02:39:15.483Z,1013.43
2022-09-06T02:40:15.534Z,1013.42
2022-09-06T02:41:16.539Z,1013.41
2022-09-06T02:42:15.339Z,1013.38
2022-09-06T02:43:16.143Z,1013.45
2022-09-06T02:44:15.402Z,1013.47
2022-09-06T02:45:15.302Z,1013.49
2022-09-06T02:46:15.306Z,1013.55
2022-09-06T02:47:15.512Z,1013.56
2022-09-06T02:48:15.304Z,1013.61
2022-09-06T02:49:15.300Z,1013.58
2022-09-06T02:50:16.184Z,1013.58
2022-09-06T02:51:15.226Z,1013.63
2022-09-06T02:52:15.995Z,1013.61
2022-09-06T02:53:15.316Z,1013.66
2022-09-06T02:54:15.264Z,1013.64
2022-09-06T02:55:15.206Z,1013.66
2022-09-06T02:56:15.325Z,1013.64
2022-09-06T02:57:15.154Z,1013.63
2022-09-06T02:58:15.102Z,1013.65
2022-09-06T02:59:15.164Z,1013.62
2022-09-06T03:00:15.065Z,1013.61
2022-09-06T03:01:15.097Z,1013.64
2022-09-06T03:02:15.148Z,1013.56
2022-09-06T03:03:15.435Z,1013.58
2022-09-06T03:04:15.339Z,1013.53
2022-09-06T03:05:15.108Z,1013.53
2022-09-06T03:06:15.089Z,1013.47
2022-09-06T03:07:14.988Z,1013.51
2022-09-06T03:08:14.973Z,1013.55
2022-09-06T03:09:15.897Z,1013.53
2022-09-06T03:10:14.994Z,1013.49
2022-09-06T03:11:15.011Z,1013.52
2022-09-06T03:12:14.974Z,1013.49
2022-09-06T03:13:14.908Z,1013.48
2022-09-06T03:14:14.927Z,1013.52
2022-09-06T03:15:14.917Z,1013.50
2022-09-06T03:16:15.525Z,1013.48
2022-09-06T03:17:14.869Z,1013.47
2022-09-06T03:18:16.063Z,1013.48
2022-09-06T03:19:14.981Z,1013.47
2022-09-06T03:20:14.913Z,1013.52
2022-09-06T03:21:14.823Z,1013.53
2022-09-06T03:22:14.797Z,1013.51
2022-09-06T03:23:14.787Z,1013.56
2022-09-06T03:24:14.860Z,1013.46
2022-09-06T03:25:14.857Z,1013.53
2022-09-06T03:26:14.790Z,1013.47
2022-09-06T03:27:14.725Z,1013.45
2022-09-06T03:28:14.755Z,1013.43
2022-09-06T03:29:15.513Z,1013.40
2022-09-06T03:30:14.715Z,1013.42
2022-09-06T03:31:14.755Z,1013.44
2022-09-06T03:32:14.695Z,1013.38
2022-09-06T03:33:14.662Z,1013.37
2022-09-06T03:34:14.651Z,1013.36
2022-09-06T03:35:14.620Z,1013.37
2022-09-06T03:36:14.625Z,1013.36
2022-09-06T03:37:15.768Z,1013.32
2022-09-06T03:38:14.769Z,1013.29
2022-09-06T03:39:14.620Z,1013.33
2022-09-06T03:40:14.570Z,1013.37
2022-09-06T03:41:14.567Z,1013.32
2022-09-06T03:42:14.559Z,1013.39
2022-09-06T03:43:14.548Z,1013.38
2022-09-06T03:44:14.504Z,1013.39
2022-09-06T03:45:14.488Z,1013.41
2022-09-06T03:46:14.627Z,1013.36
2022-09-06T03:47:18.782Z,1013.32
2022-09-06T03:48:15.451Z,1013.28
2022-09-06T03:49:14.508Z,1013.27
2022-09-06T03:50:14.436Z,1013.28
2022-09-06T03:51:14.408Z,1013.22
2022-09-06T03:52:14.397Z,1013.23
2022-09-06T03:53:14.470Z,1013.26
2022-09-06T03:54:14.547Z,1013.20
2022-09-06T03:55:14.350Z,1013.17
2022-09-06T03:56:14.560Z,1013.20
2022-09-06T03:57:14.363Z,1013.16
2022-09-06T03:58:14.356Z,1013.17
2022-09-06T03:59:14.296Z,1013.16
2022-09-06T04:00:14.376Z,1013.18
2022-09-06T04:01:14.388Z,1013.20
2022-09-06T04:02:14.358Z,1013.17
2022-09-06T04:03:14.620Z,1013.16
2022-09-06T04:04:14.261Z,1013.15
2022-09-06T04:05:14.236Z,1013.18
2022-09-06T04:06:14.236Z,1013.17
2022-09-06T04:07:14.208Z,1013.21
2022-09-06T04:08:14.200Z,1013.21
2022-09-06T04:09:14.264Z,1013.16
2022-09-06T04:10:14.206Z,1013.22
2022-09-06T04:11:14.164Z,1013.24
2022-09-06T04:12:14.168Z,1013.18
2022-09-06T04:13:14.164Z,1013.20
2022-09-06T04:14:14.124Z,1013.18
2022-09-06T04:15:14.251Z,1013.18
2022-09-06T04:16:14.148Z,1013.18
2022-09-06T04:17:14.070Z,1013.16
2022-09-06T04:18:14.083Z,1013.20
2022-09-06T04:19:14.079Z,1013.16
2022-09-06T04:20:14.068Z,1013.12
2022-09-06T04:21:14.075Z,1013.12
2022-09-06T04:22:14.051Z,1013.11
2022-09-06T04:23:14.009Z,1013.17
2022-09-06T04:24:14.094Z,1013.16
2022-09-06T04:25:13.987Z,1013.09
2022-09-06T04:26:13.972Z,1013.12
2022-09-06T04:27:13.958Z,1013.09
2022-09-06T04:28:13.923Z,1013.13
2022-09-06T04:29:14.010Z,1013.17
2022-09-06T04:30:14.020Z,1013.16
2022-09-06T04:31:13.882Z,1013.20
2022-09-06T04:32:13.883Z,1013.17
2022-09-06T04:33:13.863Z,1013.12
2022-09-06T04:34:13.875Z,1013.18
2022-09-06T04:35:13.916Z,1013.17
2022-09-06T04:36:13.832Z,1013.12
2022-09-06T04:37:13.836Z,1013.17
2022-09-06T04:38:13.847Z,1013.15
2022-09-06T04:39:13.828Z,1013.14
2022-09-06T04:40:13.848Z,1013.20
2022-09-06T04:41:13.809Z,1013.12
2022-09-06T04:42:13.787Z,1013.18
2022-09-06T04:43:13.756Z,1013.17
2022-09-06T04:44:13.926Z,1013.17
2022-09-06T04:45:13.715Z,1013.15
2022-09-06T04:46:14.553Z,1013.19
2022-09-06T04:47:14.689Z,1013.19
2022-09-06T04:48:13.833Z,1013.20
2022-09-06T04:49:13.741Z,1013.21
2022-09-06T04:50:13.723Z,1013.15
2022-09-06T04:51:13.713Z,1013.13
2022-09-06T04:52:13.701Z,1013.18
2022-09-06T04:53:13.620Z,1013.20
2022-09-06T04:54:13.633Z,1013.23
2022-09-06T04:55:13.650Z,1013.20
2022-09-06T04:56:13.633Z,1013.21
2022-09-06T04:57:14.750Z,1013.18
2022-09-06T04:58:13.561Z,1013.25
2022-09-06T04:59:13.632Z,1013.24
2022-09-06T05:00:13.543Z,1013.27
2022-09-06T05:01:34.645Z,1013.25
2022-09-06T05:02:13.534Z,1013.33
2022-09-06T05:03:14.945Z,1013.30
2022-09-06T05:04:13.613Z,1013.33
2022-09-06T05:05:13.457Z,1013.33
2022-09-06T05:06:13.483Z,1013.33
2022-09-06T05:07:13.473Z,1013.31
2022-09-06T05:08:13.417Z,1013.32
2022-09-06T05:09:13.415Z,1013.29
2022-09-06T05:10:13.395Z,1013.26
2022-09-06T05:11:14.424Z,1013.30
2022-09-06T05:12:14.351Z,1013.29
2022-09-06T05:13:13.576Z,1013.23
2022-09-06T05:14:13.338Z,1013.21
2022-09-06T05:15:13.476Z,1013.25
2022-09-06T05:16:13.574Z,1013.25
2022-09-06T05:17:13.343Z,1013.29
2022-09-06T05:18:16.136Z,1013.32
2022-09-06T05:19:13.309Z,1013.32
2022-09-06T05:20:13.386Z,1013.32
2022-09-06T05:21:13.399Z,1013.32
2022-09-06T05:22:13.258Z,1013.36
2022-09-06T05:23:13.248Z,1013.36
2022-09-06T05:24:13.602Z,1013.35
2022-09-06T05:25:14.172Z,1013.34
2022-09-06T05:26:13.301Z,1013.35
2022-09-06T05:27:13.213Z,1013.27
2022-09-06T05:28:13.181Z,1013.32
2022-09-06T05:29:13.204Z,1013.30
2022-09-06T05:30:13.582Z,1013.26
2022-09-06T05:31:13.373Z,1013.29
2022-09-06T05:32:13.099Z,1013.32
2022-09-06T05:33:13.101Z,1013.30
2022-09-06T05:34:13.080Z,1013.29
2022-09-06T05:35:13.593Z,1013.34
2022-09-06T05:36:13.130Z,1013.35
2022-09-06T05:37:13.091Z,1013.37
2022-09-06T05:38:13.144Z,1013.39
2022-09-06T05:39:13.504Z,1013.38
2022-09-06T05:40:13.603Z,1013.37
2022-09-06T05:41:13.568Z,1013.34
2022-09-06T05:42:17.165Z,1013.37
2022-09-06T05:43:14.156Z,1013.39
2022-09-06T05:44:12.985Z,1013.38
2022-09-06T05:45:12.927Z,1013.33
2022-09-06T05:46:12.983Z,1013.29
2022-09-06T05:47:12.941Z,1013.25
2022-09-06T05:48:13.948Z,1013.26
2022-09-06T05:49:12.907Z,1013.27
2022-09-06T05:50:13.760Z,1013.25
2022-09-06T05:51:13.028Z,1013.25
2022-09-06T05:52:12.854Z,1013.22
2022-09-06T05:53:12.848Z,1013.27
2022-09-06T05:54:12.892Z,1013.21
2022-09-06T05:55:12.894Z,1013.19
2022-09-06T05:56:12.790Z,1013.24
2022-09-06T05:57:12.800Z,1013.22
2022-09-06T05:58:12.996Z,1013.21
2022-09-06T05:59:12.931Z,1013.26
2022-09-06T06:00:12.839Z,1013.27
2022-09-06T06:01:13.767Z,1013.25
2022-09-06T06:02:14.731Z,1013.25
2022-09-06T06:03:12.735Z,1013.27
2022-09-06T06:04:12.818Z,1013.26
2022-09-06T06:05:12.887Z,1013.24
2022-09-06T06:06:12.661Z,1013.25
2022-09-06T06:07:12.653Z,1013.30
2022-09-06T06:08:12.636Z,1013.27
2022-09-06T06:09:12.683Z,1013.33
2022-09-06T06:10:12.648Z,1013.24
2022-09-06T06:11:12.635Z,1013.23
2022-09-06T06:12:12.622Z,1013.20
2022-09-06T06:13:13.072Z,1013.17
2022-09-06T06:14:12.616Z,1013.15
2022-09-06T06:15:12.657Z,1013.18
2022-09-06T06:16:12.570Z,1013.11
2022-09-06T06:17:12.545Z,1013.10
2022-09-06T06:18:13.176Z,1013.05
2022-09-06T06:19:12.509Z,1013.10
2022-09-06T06:20:12.468Z,1012.99
2022-09-06T06:21:13.349Z,1012.97
2022-09-06T06:22:12.458Z,1013.08
2022-09-06T06:23:12.484Z,1013.10
2022-09-06T06:24:12.700Z,1013.11
2022-09-06T06:25:13.479Z,1013.13
2022-09-06T06:26:12.478Z,1013.18
2022-09-06T06:27:12.428Z,1013.18
2022-09-06T06:28:12.667Z,1013.20
2022-09-06T06:29:12.433Z,1013.21
2022-09-06T06:30:17.764Z,1013.17
2022-09-06T06:31:13.552Z,1013.18
2022-09-06T06:32:13.309Z,1013.15
2022-09-06T06:33:12.360Z,1013.16
2022-09-06T06:34:12.321Z,1013.15
2022-09-06T06:35:12.320Z,1013.18
2022-09-06T06:36:12.279Z,1013.23
2022-09-06T06:37:12.525Z,1013.19
2022-09-06T06:38:13.125Z,1013.17
2022-09-06T06:39:12.245Z,1013.17
2022-09-06T06:40:13.172Z,1013.17
2022-09-06T06:41:13.477Z,1013.20
2022-09-06T06:42:12.553Z,1013.15
2022-09-06T06:43:12.203Z,1013.16
2022-09-06T06:44:12.611Z,1013.15
2022-09-06T06:45:12.225Z,1013.15
2022-09-06T06:46:12.273Z,1013.15
2022-09-06T06:47:12.141Z,1013.17
2022-09-06T06:48:12.546Z,1013.13
2022-09-06T06:49:12.166Z,1013.15
2022-09-06T06:50:13.124Z,1013.16
2022-09-06T06:51:12.755Z,1013.14
2022-09-06T06:52:12.925Z,1013.10
2022-09-06T06:53:12.129Z,1013.05
2022-09-06T06:54:13.243Z,1013.12
2022-09-06T06:55:13.148Z,1013.11
2022-09-06T06:56:13.052Z,1013.16
2022-09-06T06:57:12.113Z,1013.12
2022-09-06T06:58:12.291Z,1013.07
2022-09-06T06:59:11.970Z,1013.09
2022-09-06T07:00:12.091Z,1013.06
2022-09-06T07:01:13.215Z,1013.09
2022-09-06T07:02:13.113Z,1013.13
2022-09-06T07:03:12.259Z,1013.15
2022-09-06T07:04:11.994Z,1013.21
2022-09-06T07:06:13.275Z,1013.16
2022-09-06T07:08:13.075Z,1013.21
2022-09-06T07:09:12.502Z,1013.14
2022-09-06T07:11:12.870Z,1013.12
2022-09-06T07:12:11.804Z,1013.15
2022-09-06T07:13:11.798Z,1013.11
2022-09-06T07:14:11.848Z,1013.08
2022-09-06T07:15:11.803Z,1013.12
2022-09-06T07:16:12.026Z,1013.17
2022-09-06T07:17:11.776Z,1013.16
2022-09-06T07:18:11.712Z,1013.21
2022-09-06T07:20:13.180Z,1013.23
2022-09-06T07:22:13.765Z,1013.24
2022-09-06T07:24:12.936Z,1013.19
2022-09-06T07:25:12.679Z,1013.19
2022-09-06T07:26:11.697Z,1013.19
2022-09-06T07:28:12.639Z,1013.21
2022-09-06T07:29:12.441Z,1013.20
2022-09-06T07:30:12.349Z,1013.25
2022-09-06T07:32:12.774Z,1013.19
2022-09-06T07:33:11.839Z,1013.17
2022-09-06T07:34:12.481Z,1013.23
2022-09-06T07:35:12.451Z,1013.22
2022-09-06T07:36:11.530Z,1013.20
2022-09-06T07:37:11.509Z,1013.23
2022-09-06T07:38:12.598Z,1013.24
2022-09-06T07:39:11.827Z,1013.29
2022-09-06T07:40:11.611Z,1013.29
2022-09-06T07:41:11.448Z,1013.23
2022-09-06T07:42:11.506Z,1013.25
2022-09-06T07:43:11.580Z,1013.23
2022-09-06T07:44:12.541Z,1013.30
2022-09-06T07:45:12.374Z,1013.28
2022-09-06T07:46:11.403Z,1013.37
2022-09-06T07:48:12.360Z,1013.47
2022-09-06T07:49:11.356Z,1013.47
2022-09-06T07:51:12.331Z,1013.57
2022-09-06T07:53:15.253Z,1013.64
2022-09-06T07:54:29.772Z,1013.61
2022-09-06T07:55:13.016Z,1013.62
2022-09-06T07:56:12.409Z,1013.69
2022-09-06T07:57:11.253Z,1013.67
2022-09-06T07:58:11.308Z,1013.71
2022-09-06T07:59:11.281Z,1013.69
2022-09-06T08:00:11.199Z,1013.74
2022-09-06T08:01:11.242Z,1013.77
2022-09-06T08:02:12.377Z,1013.79
2022-09-06T08:03:11.160Z,1013.73
2022-09-06T08:04:12.161Z,1013.77
2022-09-06T08:06:12.147Z,1013.80
2022-09-06T08:09:13.215Z,1013.79
2022-09-06T08:10:11.113Z,1013.77
2022-09-06T08:11:12.055Z,1013.77
2022-09-06T08:12:11.054Z,1013.71
2022-09-06T08:13:11.796Z,1013.72
2022-09-06T08:14:11.265Z,1013.79
2022-09-06T08:15:11.672Z,1013.81
2022-09-06T08:16:11.170Z,1013.85
2022-09-06T08:17:11.234Z,1013.86
2022-09-06T08:18:10.969Z,1013.85
2022-09-06T08:19:11.025Z,1013.90
2022-09-06T08:20:10.958Z,1013.84
2022-09-06T08:21:12.699Z,1013.90
2022-09-06T08:22:10.896Z,1013.91
2022-09-06T08:23:10.910Z,1013.89
2022-09-06T08:24:11.768Z,1013.94
2022-09-06T08:25:10.927Z,1013.91
2022-09-06T08:26:10.981Z,1013.90
2022-09-06T08:27:10.820Z,1013.92
2022-09-06T08:28:10.838Z,1013.84
2022-09-06T08:29:10.958Z,1013.88
2022-09-06T08:30:10.880Z,1013.86
2022-09-06T08:31:11.701Z,1013.81
2022-09-06T08:32:10.777Z,1013.85
2022-09-06T08:33:10.748Z,1013.89
2022-09-06T08:34:10.749Z,1013.93
2022-09-06T08:35:11.751Z,1013.96
2022-09-06T08:36:10.755Z,1013.99
2022-09-06T08:37:10.866Z,1014.03
2022-09-06T08:38:10.661Z,1014.03
2022-09-06T08:39:10.703Z,1014.02
2022-09-06T08:40:10.836Z,1014.04
2022-09-06T08:41:10.844Z,1013.99
2022-09-06T08:42:11.585Z,1013.99
2022-09-06T08:43:10.653Z,1013.98
2022-09-06T08:45:11.737Z,1013.99
2022-09-06T08:46:10.640Z,1014.06
2022-09-06T08:47:11.620Z,1014.06
2022-09-06T08:48:10.599Z,1014.09
2022-09-06T08:49:10.577Z,1014.08
2022-09-06T08:50:11.321Z,1014.08
2022-09-06T08:51:11.739Z,1014.06
2022-09-06T08:52:10.637Z,1014.08
2022-09-06T08:53:17.143Z,1014.06
2022-09-06T08:54:11.576Z,1014.07
2022-09-06T08:55:10.530Z,1014.04
2022-09-06T08:56:10.628Z,1014.02
2022-09-06T08:57:10.478Z,1014.00
2022-09-06T08:58:11.581Z,1014.07
2022-09-06T08:59:10.439Z,1014.05
2022-09-06T09:00:11.174Z,1014.09
2022-09-06T09:01:10.604Z,1014.07
2022-09-06T09:02:10.656Z,1014.10
2022-09-06T09:03:15.900Z,1014.12
2022-09-06T09:04:12.068Z,1014.05
2022-09-06T09:05:10.375Z,1014.06
2022-09-06T09:06:10.517Z,1014.01
2022-09-06T09:07:10.532Z,1013.94
2022-09-06T09:08:10.652Z,1013.87
2022-09-06T09:09:10.354Z,1013.84
2022-09-06T09:10:12.214Z,1013.78
2022-09-06T09:11:10.303Z,1013.79
2022-09-06T09:12:11.262Z,1013.74
2022-09-06T09:13:10.230Z,1013.73
2022-09-06T09:14:10.223Z,1013.72
2022-09-06T09:15:10.351Z,1013.68
2022-09-06T09:16:10.281Z,1013.64
2022-09-06T09:17:10.223Z,1013.63
2022-09-06T09:18:10.686Z,1013.61
2022-09-06T09:19:11.099Z,1013.64
2022-09-06T09:20:10.323Z,1013.61
2022-09-06T09:21:10.153Z,1013.59
2022-09-06T09:22:10.259Z,1013.62
2022-09-06T09:23:10.655Z,1013.62
2022-09-06T09:24:10.636Z,1013.60
2022-09-06T09:25:10.156Z,1013.62
2022-09-06T09:26:10.201Z,1013.57
2022-09-06T09:27:10.387Z,1013.54
2022-09-06T09:28:11.607Z,1013.52
2022-09-06T09:29:11.168Z,1013.49
2022-09-06T09:31:11.114Z,1013.37
2022-09-06T09:32:10.068Z,1013.33
2022-09-06T09:33:10.060Z,1013.29
2022-09-06T09:34:11.449Z,1013.21
2022-09-06T09:35:11.099Z,1013.22
2022-09-06T09:36:11.009Z,1013.18
2022-09-06T09:38:12.313Z,1013.20
2022-09-06T09:39:09.936Z,1013.11
2022-09-06T09:40:11.155Z,1013.11
2022-09-06T09:41:10.085Z,1013.05
2022-09-06T09:42:11.008Z,1013.03
2022-09-06T09:43:09.846Z,1012.99
2022-09-06T09:44:09.841Z,1013.04
2022-09-06T09:45:09.843Z,1012.96
2022-09-06T09:46:09.903Z,1013.02
2022-09-06T09:47:10.532Z,1012.98
2022-09-06T09:48:09.840Z,1012.92
2022-09-06T09:49:09.780Z,1012.96
2022-09-06T09:50:09.788Z,1013.01
2022-09-06T09:51:09.762Z,1012.91
2022-09-06T09:52:09.775Z,1012.93
2022-09-06T09:53:09.783Z,1012.95
2022-09-06T09:54:09.736Z,1012.90
2022-09-06T09:55:10.721Z,1012.93
2022-09-06T09:56:09.679Z,1012.92
2022-09-06T09:57:11.891Z,1012.90
2022-09-06T09:58:09.732Z,1012.86
2022-09-06T09:59:10.495Z,1012.87
2022-09-06T10:00:09.641Z,1012.83
2022-09-06T10:01:09.653Z,1012.81
2022-09-06T10:02:10.556Z,1012.82
2022-09-06T10:03:09.900Z,1012.85
2022-09-06T10:05:10.718Z,1012.81
2022-09-06T10:07:10.843Z,1012.80
2022-09-06T10:08:09.559Z,1012.76
2022-09-06T10:09:09.698Z,1012.75
2022-09-06T10:10:10.305Z,1012.77
2022-09-06T10:11:09.512Z,1012.77
2022-09-06T10:12:09.732Z,1012.73
2022-09-06T10:13:09.654Z,1012.68
2022-09-06T10:14:09.444Z,1012.80
2022-09-06T10:15:09.617Z,1012.75
2022-09-06T10:16:09.475Z,1012.75
2022-09-06T10:17:09.615Z,1012.80
2022-09-06T10:18:10.555Z,1012.75
2022-09-06T10:19:09.675Z,1012.71
2022-09-06T10:20:09.479Z,1012.77
2022-09-06T10:21:10.265Z,1012.72
2022-09-06T10:22:09.470Z,1012.72
2022-09-06T10:23:09.346Z,1012.67
2022-09-06T10:25:10.483Z,1012.76
2022-09-06T10:26:10.301Z,1012.75
2022-09-06T10:27:09.515Z,1012.75
2022-09-06T10:28:11.817Z,1012.76
2022-09-06T10:29:09.277Z,1012.80
2022-09-06T10:30:09.242Z,1012.76
2022-09-06T10:31:09.449Z,1012.73
2022-09-06T10:32:09.201Z,1012.77
2022-09-06T10:33:09.232Z,1012.81
2022-09-06T10:34:09.383Z,1012.84
2022-09-06T10:35:09.218Z,1012.80
2022-09-06T10:36:09.204Z,1012.79
2022-09-06T10:37:09.193Z,1012.82
2022-09-06T10:38:09.152Z,1012.83
2022-09-06T10:39:09.202Z,1012.78
2022-09-06T10:40:09.172Z,1012.75
2022-09-06T10:41:09.154Z,1012.74
2022-09-06T10:42:09.090Z,1012.71
2022-09-06T10:43:10.207Z,1012.75
2022-09-06T10:44:09.074Z,1012.76
2022-09-06T10:45:09.075Z,1012.75
2022-09-06T10:46:09.962Z,1012.68
2022-09-06T10:47:09.099Z,1012.71
2022-09-06T10:48:13.924Z,1012.71
2022-09-06T10:49:10.106Z,1012.68
2022-09-06T10:50:09.035Z,1012.71
2022-09-06T10:51:09.949Z,1012.67
2022-09-06T10:52:09.240Z,1012.68
2022-09-06T10:53:09.068Z,1012.64
2022-09-06T10:54:10.460Z,1012.67
2022-09-06T10:55:08.912Z,1012.66
2022-09-06T10:56:08.884Z,1012.63
2022-09-06T10:58:17.658Z,1012.57
2022-09-06T11:00:09.863Z,1012.60
2022-09-06T11:01:09.087Z,1012.56
2022-09-06T11:02:08.959Z,1012.56
2022-09-06T11:04:12.912Z,1012.55
2022-09-06T11:06:09.778Z,1012.51
2022-09-06T11:07:09.742Z,1012.50
2022-09-06T11:09:09.870Z,1012.60
2022-09-06T11:10:08.852Z,1012.57
2022-09-06T11:11:09.401Z,1012.59
2022-09-06T11:12:08.803Z,1012.56
2022-09-06T11:13:08.702Z,1012.60
2022-09-06T11:14:08.644Z,1012.60
2022-09-06T11:15:08.716Z,1012.60
2022-09-06T11:16:08.789Z,1012.60
2022-09-06T11:17:08.676Z,1012.63
2022-09-06T11:18:08.628Z,1012.57
2022-09-06T11:19:08.650Z,1012.58
2022-09-06T11:20:08.603Z,1012.55
2022-09-06T11:21:09.628Z,1012.54
2022-09-06T11:22:08.645Z,1012.50
2022-09-06T11:23:09.436Z,1012.53
2022-09-06T11:24:08.549Z,1012.47
2022-09-06T11:25:09.759Z,1012.49
2022-09-06T11:26:08.711Z,1012.53
2022-09-06T11:27:08.866Z,1012.53
2022-09-06T11:28:08.517Z,1012.49
2022-09-06T11:29:08.859Z,1012.50
2022-09-06T11:30:08.892Z,1012.52
2022-09-06T11:31:08.649Z,1012.47
2022-09-06T11:32:16.211Z,1012.40
2022-09-06T11:33:09.443Z,1012.45
2022-09-06T11:34:09.407Z,1012.44
2022-09-06T11:35:08.491Z,1012.46
2022-09-06T11:36:08.512Z,1012.45
2022-09-06T11:37:08.371Z,1012.40
2022-09-06T11:38:08.375Z,1012.41
2022-09-06T11:39:08.387Z,1012.39
2022-09-06T11:41:12.076Z,1012.41
2022-09-06T11:42:09.148Z,1012.41
2022-09-06T11:43:08.286Z,1012.41
2022-09-06T11:44:08.716Z,1012.42
2022-09-06T11:45:08.397Z,1012.36
2022-09-06T11:46:08.401Z,1012.36
2022-09-06T11:47:08.276Z,1012.33
2022-09-06T11:48:08.348Z,1012.37
2022-09-06T11:49:09.310Z,1012.33
2022-09-06T11:50:08.224Z,1012.32
2022-09-06T11:51:08.346Z,1012.38
2022-09-06T11:52:09.209Z,1012.36
2022-09-06T11:53:09.119Z,1012.28
2022-09-06T11:54:09.062Z,1012.27
2022-09-06T11:55:08.358Z,1012.30
2022-09-06T11:56:08.224Z,1012.29
2022-09-06T11:57:08.100Z,1012.32
2022-09-06T11:58:08.211Z,1012.37
2022-09-06T11:59:08.113Z,1012.34
2022-09-06T12:00:08.080Z,1012.38
2022-09-06T12:01:08.202Z,1012.29
2022-09-06T12:02:08.075Z,1012.36
2022-09-06T12:04:10.007Z,1012.36
2022-09-06T12:05:08.022Z,1012.36
2022-09-06T12:06:08.428Z,1012.33
2022-09-06T12:07:08.390Z,1012.36
2022-09-06T12:08:08.057Z,1012.35
2022-09-06T12:09:07.969Z,1012.35
2022-09-06T12:10:09.015Z,1012.34
2022-09-06T12:11:07.956Z,1012.38
2022-09-06T12:12:11.399Z,1012.41
2022-09-06T12:13:07.951Z,1012.42
2022-09-06T12:14:07.901Z,1012.30
2022-09-06T12:15:07.916Z,1012.31
2022-09-06T12:16:07.926Z,1012.37
2022-09-06T12:17:07.900Z,1012.35
2022-09-06T12:18:07.853Z,1012.28
2022-09-06T12:19:07.850Z,1012.24
2022-09-06T12:20:07.854Z,1012.25
2022-09-06T12:21:07.803Z,1012.20
2022-09-06T12:22:07.801Z,1012.17
2022-09-06T12:23:07.803Z,1012.19
2022-09-06T12:24:07.783Z,1012.18
2022-09-06T12:25:08.309Z,1012.16
2022-09-06T12:26:07.732Z,1012.12
2022-09-06T12:27:07.796Z,1012.04
2022-09-06T12:28:07.719Z,1011.98
2022-09-06T12:29:07.711Z,1012.04
2022-09-06T12:30:08.535Z,1012.11
2022-09-06T12:31:07.882Z,1012.09
2022-09-06T12:32:07.667Z,1012.03